Time;durP1;ratioP1;P1;durP2;ratioP2;P2;SDS_P1;SDS_P2;PMS_P1;PMS_P2;Temp;Humidity;BMP_temperature;BMP_pressure;BME280_temperature;BME280_humidity;BME280_pressure;Samples;Min_cycle;Max_cycle;Signal;HPM_P1;HPM_P2
2023/04/28 00:00:53;;;;;;;0.52;0.40;;;12.40;99.90;;;;;;4945722;28;20257;-67
2023/04/28 00:03:21;;;;;;;1.13;0.75;;;12.50;99.90;;;;;;4936755;29;20218;-69
2023/04/28 00:05:49;;;;;;;1.77;0.50;;;12.50;99.90;;;;;;4917158;29;20240;-67
2023/04/28 00:08:20;;;;;;;0.60;0.40;;;12.50;99.90;;;;;;4917382;29;20623;-66
2023/04/28 00:10:48;;;;;;;0.60;0.47;;;12.50;99.90;;;;;;4926779;29;20658;-67
2023/04/28 00:13:16;;;;;;;0.60;0.40;;;12.50;99.90;;;;;;4920298;29;20739;-67
2023/04/28 00:15:44;;;;;;;0.60;0.50;;;12.50;99.90;;;;;;4926207;29;20618;-67
2023/04/28 00:18:11;;;;;;;0.63;0.55;;;12.50;99.90;;;;;;4921975;29;20283;-66
2023/04/28 00:20:39;;;;;;;0.60;0.40;;;12.50;99.90;;;;;;4920612;29;20200;-67
2023/04/28 00:23:07;;;;;;;0.52;0.40;;;12.60;99.90;;;;;;4917015;29;20739;-67
2023/04/28 00:25:36;;;;;;;0.50;0.40;;;12.60;99.90;;;;;;4918820;29;20209;-67
2023/04/28 00:28:04;;;;;;;0.50;0.40;;;12.50;99.90;;;;;;4916679;29;20288;-67
2023/04/28 00:30:32;;;;;;;0.85;0.60;;;12.40;99.90;;;;;;4921843;29;20228;-67
2023/04/28 00:33:00;;;;;;;0.70;0.60;;;12.40;99.90;;;;;;4922615;29;20319;-67
2023/04/28 00:35:28;;;;;;;0.55;0.38;;;12.40;99.90;;;;;;4916785;29;20300;-68
2023/04/28 00:37:55;;;;;;;0.50;0.38;;;12.50;99.90;;;;;;4923085;29;20209;-67
2023/04/28 00:40:23;;;;;;;0.50;0.40;;;12.40;99.90;;;;;;4919658;29;20205;-67
2023/04/28 00:42:52;;;;;;;0.98;0.80;;;12.40;99.90;;;;;;4924689;29;20228;-67
2023/04/28 00:45:20;;;;;;;0.60;0.40;;;12.40;99.90;;;;;;4916411;29;20721;-67
2023/04/28 00:47:48;;;;;;;0.60;0.45;;;12.40;99.90;;;;;;4916216;29;20212;-67
2023/04/28 00:50:16;;;;;;;0.70;0.50;;;12.40;99.90;;;;;;4916630;29;20217;-67
2023/04/28 00:52:44;;;;;;;0.50;0.40;;;12.50;99.90;;;;;;4916179;29;20358;-67
2023/04/28 00:55:15;;;;;;;0.50;0.35;;;12.40;99.90;;;;;;4916351;29;20205;-67
2023/04/28 00:57:44;;;;;;;0.75;0.57;;;12.30;99.90;;;;;;4916277;29;20201;-66
2023/04/28 01:00:15;;;;;;;0.63;0.40;;;12.30;99.90;;;;;;4920496;29;20677;-67
2023/04/28 01:02:43;;;;;;;1.35;1.25;;;12.30;99.90;;;;;;4966553;28;20248;-66
2023/04/28 01:05:12;;;;;;;0.60;0.50;;;12.30;99.90;;;;;;4959800;28;20200;-67
2023/04/28 01:07:40;;;;;;;0.70;0.57;;;12.30;99.90;;;;;;4953836;28;20207;-67
2023/04/28 01:10:09;;;;;;;0.80;0.60;;;12.30;99.90;;;;;;4954110;28;20302;-67
2023/04/28 01:12:37;;;;;;;0.60;0.60;;;12.30;99.90;;;;;;4951042;28;20299;-66
2023/04/28 01:15:06;;;;;;;0.60;0.50;;;12.20;99.90;;;;;;4953946;28;20211;-67
2023/04/28 01:17:35;;;;;;;0.60;0.50;;;12.20;99.90;;;;;;4954219;28;20203;-67
2023/04/28 01:20:04;;;;;;;0.60;0.40;;;12.20;99.90;;;;;;4953618;28;20621;-67
2023/04/28 01:22:32;;;;;;;0.50;0.40;;;12.20;99.90;;;;;;4952749;28;20228;-66
2023/04/28 01:25:02;;;;;;;0.70;0.40;;;12.10;99.90;;;;;;4953930;28;20301;-67
2023/04/28 01:27:30;;;;;;;0.60;0.60;;;12.10;99.90;;;;;;4952974;28;20676;-67
2023/04/28 01:29:58;;;;;;;0.60;0.40;;;12.20;99.90;;;;;;4948964;28;20239;-67
2023/04/28 01:32:26;;;;;;;0.60;0.47;;;12.20;99.90;;;;;;4968828;28;20695;-67
2023/04/28 01:34:54;;;;;;;0.93;0.60;;;12.20;99.90;;;;;;4955249;28;20278;-67
2023/04/28 01:37:21;;;;;;;0.60;0.40;;;12.20;99.90;;;;;;4953716;28;20210;-67
2023/04/28 01:39:49;;;;;;;0.60;0.40;;;12.30;99.90;;;;;;4952204;28;20216;-67
2023/04/28 01:42:18;;;;;;;0.50;0.40;;;12.30;99.90;;;;;;4949733;28;20658;-67
2023/04/28 01:44:46;;;;;;;0.80;0.60;;;12.30;99.90;;;;;;4937188;28;20212;-67
2023/04/28 01:47:14;;;;;;;0.60;0.43;;;12.20;99.90;;;;;;4945910;28;20207;-66
2023/04/28 01:49:42;;;;;;;0.70;0.47;;;12.10;99.90;;;;;;4952975;28;20612;-67
2023/04/28 01:52:10;;;;;;;0.70;0.40;;;11.90;99.90;;;;;;4944165;28;20318;-67
2023/04/28 01:54:38;;;;;;;0.60;0.40;;;11.90;99.90;;;;;;4939926;28;20570;-67
2023/04/28 01:57:05;;;;;;;0.70;0.50;;;11.80;99.90;;;;;;4951236;28;20234;-67
2023/04/28 01:59:35;;;;;;;0.60;0.45;;;11.80;99.90;;;;;;4942441;28;20212;-66
2023/04/28 02:02:03;;;;;;;0.60;0.50;;;11.90;99.90;;;;;;4945448;28;20255;-66
2023/04/28 02:04:31;;;;;;;0.60;0.60;;;11.90;99.90;;;;;;4946077;28;20235;-67
2023/04/28 02:06:59;;;;;;;0.60;0.40;;;11.90;99.90;;;;;;4946168;28;20736;-67
2023/04/28 02:09:27;;;;;;;0.50;0.40;;;11.80;99.90;;;;;;4949567;28;20242;-67
2023/04/28 02:11:54;;;;;;;0.70;0.63;;;11.80;99.90;;;;;;4945461;28;20729;-67
2023/04/28 02:14:22;;;;;;;0.63;0.47;;;11.90;99.90;;;;;;4937438;28;20212;-67
2023/04/28 02:16:51;;;;;;;0.90;0.60;;;11.80;99.90;;;;;;4938994;28;20212;-67
2023/04/28 02:19:19;;;;;;;0.60;0.40;;;11.90;99.90;;;;;;4946295;28;20700;-68
2023/04/28 02:21:47;;;;;;;0.93;0.63;;;11.80;99.90;;;;;;4952597;28;20298;-67
2023/04/28 02:24:15;;;;;;;0.95;0.60;;;11.80;99.90;;;;;;4942787;28;20207;-68
2023/04/28 02:26:43;;;;;;;0.65;0.50;;;11.70;99.90;;;;;;4945894;28;20261;-67
2023/04/28 02:29:11;;;;;;;1.13;0.80;;;11.70;99.90;;;;;;4949442;28;20673;-68
2023/04/28 02:31:39;;;;;;;0.70;0.60;;;11.70;99.90;;;;;;4939278;28;20322;-67
2023/04/28 02:34:08;;;;;;;0.80;0.70;;;11.70;99.90;;;;;;4936941;28;20227;-67
2023/04/28 02:36:36;;;;;;;0.70;0.60;;;11.60;99.90;;;;;;4947062;28;20270;-67
2023/04/28 02:39:04;;;;;;;0.80;0.80;;;11.60;99.90;;;;;;4954483;28;20207;-67
2023/04/28 02:41:33;;;;;;;0.50;0.40;;;11.50;99.90;;;;;;4940047;28;20695;-67
2023/04/28 02:44:01;;;;;;;0.68;0.55;;;11.50;99.90;;;;;;4939630;28;20223;-67
2023/04/28 02:46:29;;;;;;;0.70;0.60;;;11.50;99.90;;;;;;4935708;28;20226;-67
2023/04/28 02:48:57;;;;;;;0.60;0.50;;;11.40;99.90;;;;;;4935337;28;20222;-67
2023/04/28 02:51:26;;;;;;;0.80;0.70;;;11.40;99.90;;;;;;4938509;28;20231;-67
2023/04/28 02:53:54;;;;;;;1.10;1.00;;;11.40;99.90;;;;;;4953319;28;20218;-67
2023/04/28 02:56:21;;;;;;;0.70;0.60;;;11.30;99.90;;;;;;4938923;28;20287;-67
2023/04/28 02:58:49;;;;;;;0.73;0.65;;;11.30;99.90;;;;;;4939902;28;20219;-67
2023/04/28 03:01:17;;;;;;;0.70;0.60;;;11.30;99.90;;;;;;4938492;28;20245;-67
2023/04/28 03:03:45;;;;;;;0.60;0.55;;;11.30;99.90;;;;;;4935859;28;20212;-68
2023/04/28 03:06:14;;;;;;;0.60;0.50;;;11.30;99.90;;;;;;4942096;28;20206;-67
2023/04/28 03:08:43;;;;;;;1.00;0.80;;;11.40;99.90;;;;;;4953019;28;20632;-66
2023/04/28 03:11:11;;;;;;;0.98;0.85;;;11.40;99.90;;;;;;4946859;28;20257;-66
2023/04/28 03:13:39;;;;;;;1.10;0.88;;;11.40;99.90;;;;;;4950339;28;20227;-67
2023/04/28 03:16:07;;;;;;;1.65;1.05;;;11.30;99.90;;;;;;4940301;28;20204;-66
2023/04/28 03:18:35;;;;;;;0.60;0.40;;;11.20;99.90;;;;;;4949906;28;20211;-67
2023/04/28 03:21:03;;;;;;;0.60;0.50;;;11.20;99.90;;;;;;4948364;28;20227;-66
2023/04/28 03:23:31;;;;;;;0.60;0.40;;;11.20;99.90;;;;;;4949840;28;20231;-67
2023/04/28 03:26:00;;;;;;;0.88;0.88;;;11.20;99.90;;;;;;4950352;28;20296;-67
2023/04/28 03:28:28;;;;;;;0.60;0.50;;;11.10;99.90;;;;;;4940735;28;20215;-68
2023/04/28 03:30:56;;;;;;;0.50;0.40;;;11.10;99.90;;;;;;4954306;28;20649;-67
2023/04/28 03:33:24;;;;;;;0.60;0.45;;;11.10;99.90;;;;;;4952729;28;20234;-67
2023/04/28 03:35:53;;;;;;;0.60;0.50;;;11.10;99.90;;;;;;4955507;28;20207;-67
2023/04/28 03:38:21;;;;;;;0.70;0.60;;;11.20;99.90;;;;;;4955828;28;20215;-67
2023/04/28 03:40:49;;;;;;;0.60;0.47;;;11.30;99.90;;;;;;4953378;28;20290;-67
2023/04/28 03:43:18;;;;;;;0.50;0.40;;;11.30;99.90;;;;;;4962137;28;20213;-67
2023/04/28 03:45:46;;;;;;;0.90;0.90;;;11.40;99.90;;;;;;4956908;28;20702;-67
2023/04/28 03:48:14;;;;;;;0.60;0.47;;;11.40;99.90;;;;;;4943239;28;20217;-67
2023/04/28 03:50:44;;;;;;;0.73;0.73;;;11.40;99.90;;;;;;4936725;28;20214;-67
2023/04/28 03:53:12;;;;;;;1.05;0.60;;;11.40;99.90;;;;;;4945660;28;20781;-67
2023/04/28 03:55:40;;;;;;;0.60;0.60;;;11.50;99.90;;;;;;4944074;28;20258;-66
2023/04/28 03:58:08;;;;;;;1.42;0.80;;;11.50;99.90;;;;;;4956320;28;20234;-66
2023/04/28 04:00:37;;;;;;;1.05;0.45;;;11.60;99.90;;;;;;4962427;28;20225;-66
2023/04/28 04:03:05;;;;;;;1.02;0.65;;;11.60;99.90;;;;;;4959988;28;20841;-66
2023/04/28 04:05:33;;;;;;;0.60;0.47;;;11.60;99.90;;;;;;4969789;28;20245;-66
2023/04/28 04:08:01;;;;;;;0.60;0.57;;;11.60;99.90;;;;;;4955701;28;20684;-66
2023/04/28 04:10:28;;;;;;;0.60;0.50;;;11.60;99.90;;;;;;4948625;28;20286;-66
2023/04/28 04:12:56;;;;;;;0.60;0.50;;;11.60;99.90;;;;;;4937325;28;20232;-66
2023/04/28 04:15:24;;;;;;;0.85;0.82;;;11.60;99.90;;;;;;4942124;29;20222;-66
2023/04/28 04:17:53;;;;;;;1.45;0.80;;;11.60;99.90;;;;;;4951000;28;20211;-67
2023/04/28 04:20:21;;;;;;;0.70;0.65;;;11.50;99.90;;;;;;4953037;28;20883;-67
2023/04/28 04:22:49;;;;;;;0.50;0.40;;;11.50;99.90;;;;;;4944967;28;20227;-67
2023/04/28 04:25:17;;;;;;;0.60;0.50;;;11.50;99.90;;;;;;4952610;28;20571;-67
2023/04/28 04:27:45;;;;;;;0.70;0.65;;;11.50;99.90;;;;;;4946214;28;20692;-67
2023/04/28 04:30:13;;;;;;;0.60;0.50;;;11.40;99.90;;;;;;4935821;28;20238;-67
2023/04/28 04:32:41;;;;;;;0.88;0.88;;;11.50;99.90;;;;;;4948863;28;20586;-67
2023/04/28 04:35:10;;;;;;;0.90;0.88;;;11.40;99.90;;;;;;4944953;28;20227;-67
2023/04/28 04:37:39;;;;;;;0.93;0.93;;;11.40;99.90;;;;;;4940353;28;20227;-66
2023/04/28 04:40:07;;;;;;;0.93;0.90;;;11.30;99.90;;;;;;4953701;28;20580;-66
2023/04/28 04:42:35;;;;;;;0.90;0.85;;;11.30;99.90;;;;;;4937549;28;20723;-67
2023/04/28 04:45:04;;;;;;;1.02;0.60;;;11.30;99.90;;;;;;4942875;28;20207;-67
2023/04/28 04:47:31;;;;;;;0.60;0.50;;;11.40;99.90;;;;;;4949950;28;20247;-67
2023/04/28 04:49:59;;;;;;;0.70;0.70;;;11.30;99.90;;;;;;4966599;28;20203;-67
2023/04/28 04:52:29;;;;;;;1.05;0.98;;;11.30;99.90;;;;;;4949929;28;20310;-67
2023/04/28 04:54:56;;;;;;;0.60;0.50;;;11.20;99.90;;;;;;4954407;28;20242;-66
2023/04/28 04:57:24;;;;;;;0.90;0.70;;;11.20;99.90;;;;;;4941395;28;20212;-67
2023/04/28 04:59:52;;;;;;;0.60;0.50;;;11.20;99.90;;;;;;4940047;28;20272;-67
2023/04/28 05:02:20;;;;;;;0.80;0.75;;;11.20;99.90;;;;;;4945505;28;20326;-66
2023/04/28 05:04:48;;;;;;;1.52;0.80;;;11.10;99.90;;;;;;4949566;28;20212;-66
2023/04/28 05:07:16;;;;;;;0.70;0.50;;;11.00;99.90;;;;;;4945763;28;20262;-66
2023/04/28 05:09:45;;;;;;;0.70;0.50;;;10.90;99.90;;;;;;4948307;28;20295;-66
2023/04/28 05:12:13;;;;;;;0.85;0.85;;;10.90;99.90;;;;;;4945098;28;20306;-66
2023/04/28 05:14:41;;;;;;;0.70;0.70;;;10.80;99.90;;;;;;4952494;28;20226;-66
2023/04/28 05:17:09;;;;;;;0.80;0.80;;;10.90;99.90;;;;;;4944426;28;20210;-66
2023/04/28 05:19:37;;;;;;;1.30;1.20;;;10.80;99.90;;;;;;4934863;28;20748;-65
2023/04/28 05:22:06;;;;;;;1.02;0.93;;;10.80;99.90;;;;;;4945881;28;20281;-66
2023/04/28 05:24:33;;;;;;;1.55;1.45;;;10.70;99.90;;;;;;4957622;28;20216;-66
2023/04/28 05:27:03;;;;;;;1.00;0.70;;;10.60;99.90;;;;;;4944454;28;20736;-66
2023/04/28 05:29:30;;;;;;;0.90;0.90;;;10.40;99.90;;;;;;4954393;28;20575;-65
2023/04/28 05:31:58;;;;;;;1.75;1.20;;;10.40;99.90;;;;;;4945596;28;20227;-66
2023/04/28 05:34:26;;;;;;;1.30;1.20;;;10.40;99.90;;;;;;4959329;28;20230;-66
2023/04/28 05:36:54;;;;;;;0.70;0.60;;;10.50;99.90;;;;;;4950734;28;22086;-66
2023/04/28 05:39:22;;;;;;;0.70;0.68;;;10.60;99.90;;;;;;4943311;28;20212;-66
2023/04/28 05:41:50;;;;;;;0.90;0.80;;;10.70;99.90;;;;;;4955767;28;20232;-65
2023/04/28 05:44:19;;;;;;;1.45;1.08;;;10.60;99.90;;;;;;4945530;28;20295;-65
2023/04/28 05:46:47;;;;;;;1.20;1.00;;;10.60;99.90;;;;;;4935673;28;20299;-65
2023/04/28 05:49:15;;;;;;;0.57;0.47;;;10.60;99.90;;;;;;4941475;28;20221;-66
2023/04/28 05:51:43;;;;;;;0.93;0.93;;;10.70;99.90;;;;;;4941842;28;20236;-66
2023/04/28 05:54:11;;;;;;;1.75;1.10;;;10.80;99.90;;;;;;4942791;28;20310;-66
2023/04/28 05:56:39;;;;;;;0.65;0.65;;;10.90;99.90;;;;;;4942184;28;20212;-65
2023/04/28 05:59:07;;;;;;;1.10;1.00;;;10.90;99.90;;;;;;4941562;28;20293;-66
2023/04/28 06:01:37;;;;;;;1.02;0.90;;;10.90;99.90;;;;;;4945930;28;20268;-66
2023/04/28 06:04:05;;;;;;;1.20;1.08;;;10.70;99.90;;;;;;4939385;28;20207;-66
2023/04/28 06:06:33;;;;;;;1.25;1.13;;;10.70;99.90;;;;;;4935289;28;20596;-65
2023/04/28 06:09:02;;;;;;;2.88;1.00;;;10.70;99.90;;;;;;4953520;28;20219;-65
2023/04/28 06:11:30;;;;;;;1.60;1.15;;;10.60;99.90;;;;;;4947737;28;20247;-65
2023/04/28 06:13:58;;;;;;;1.40;1.10;;;10.50;99.90;;;;;;4942439;28;20224;-65
2023/04/28 06:16:26;;;;;;;2.25;1.40;;;10.40;99.90;;;;;;4948793;28;20590;-65
2023/04/28 06:18:55;;;;;;;1.70;1.45;;;10.30;99.90;;;;;;4943139;28;20263;-65
2023/04/28 06:21:23;;;;;;;1.58;1.45;;;10.20;99.90;;;;;;4935417;28;20310;-65
2023/04/28 06:23:51;;;;;;;1.10;0.85;;;10.20;99.90;;;;;;4941924;28;20618;-65
2023/04/28 06:26:19;;;;;;;1.30;0.95;;;10.20;99.90;;;;;;4940126;28;20212;-65
2023/04/28 06:28:47;;;;;;;1.25;1.15;;;10.20;99.90;;;;;;4943240;28;20650;-65
2023/04/28 06:31:15;;;;;;;1.23;1.05;;;10.20;99.90;;;;;;4955427;28;20232;-64
2023/04/28 06:33:43;;;;;;;1.65;1.13;;;10.20;99.90;;;;;;4942082;28;20238;-65
2023/04/28 06:36:15;;;;;;;1.98;1.45;;;10.20;99.90;;;;;;4948735;28;20230;-64
2023/04/28 06:38:43;;;;;;;1.58;0.57;;;10.20;99.90;;;;;;4956214;28;20203;-64
2023/04/28 06:41:11;;;;;;;0.70;0.70;;;10.20;99.90;;;;;;4947676;28;20203;-64
2023/04/28 06:43:39;;;;;;;1.10;0.93;;;10.20;99.90;;;;;;4952257;28;20207;-65
2023/04/28 06:46:07;;;;;;;1.63;1.27;;;10.20;99.90;;;;;;4942644;28;20216;-65
2023/04/28 06:48:35;;;;;;;1.30;1.20;;;10.20;99.90;;;;;;4939880;28;20298;-65
2023/04/28 06:51:04;;;;;;;1.60;1.05;;;10.20;99.90;;;;;;4937616;28;20218;-65
2023/04/28 06:53:33;;;;;;;1.48;1.45;;;10.20;99.90;;;;;;4935352;28;20247;-65
2023/04/28 06:56:03;;;;;;;2.28;2.17;;;10.10;99.90;;;;;;4936558;28;20205;-65
2023/04/28 06:58:31;;;;;;;0.93;0.82;;;10.20;99.90;;;;;;4938795;28;20259;-65
2023/04/28 07:00:59;;;;;;;1.30;1.20;;;10.20;99.90;;;;;;4938063;28;20412;-65
2023/04/28 07:03:28;;;;;;;1.65;1.55;;;10.30;99.90;;;;;;4937746;28;20696;-65
2023/04/28 07:05:57;;;;;;;2.72;1.40;;;10.20;99.90;;;;;;4939838;28;20206;-64
2023/04/28 07:08:26;;;;;;;0.82;0.82;;;10.20;99.90;;;;;;4951639;28;20203;-64
2023/04/28 07:10:56;;;;;;;1.00;0.90;;;10.30;99.90;;;;;;4953117;28;20298;-64
2023/04/28 07:13:24;;;;;;;1.25;0.98;;;10.30;99.90;;;;;;4941103;28;20298;-65
2023/04/28 07:15:51;;;;;;;1.27;1.17;;;10.30;99.90;;;;;;4937678;28;20266;-65
2023/04/28 07:18:20;;;;;;;0.70;0.60;;;10.20;99.90;;;;;;4942835;28;20206;-64
2023/04/28 07:20:47;;;;;;;0.88;0.88;;;10.20;99.90;;;;;;4953378;28;20213;-65
2023/04/28 07:23:15;;;;;;;1.13;1.02;;;10.20;99.90;;;;;;4944233;28;20970;-65
2023/04/28 07:25:43;;;;;;;1.27;1.15;;;10.10;99.90;;;;;;4941985;28;20287;-65
2023/04/28 07:28:13;;;;;;;0.98;0.98;;;10.20;99.90;;;;;;4943569;28;21126;-65
2023/04/28 07:30:41;;;;;;;1.27;1.17;;;10.20;99.90;;;;;;4957529;28;20313;-65
2023/04/28 07:33:09;;;;;;;0.95;0.93;;;10.20;99.90;;;;;;4966019;28;20282;-64
2023/04/28 07:35:37;;;;;;;0.82;0.82;;;10.20;99.90;;;;;;4937069;28;20224;-65
2023/04/28 07:38:06;;;;;;;2.15;1.40;;;10.30;99.90;;;;;;4948641;28;20286;-65
2023/04/28 07:40:34;;;;;;;1.20;1.15;;;10.20;99.90;;;;;;4937986;28;20211;-65
2023/04/28 07:43:02;;;;;;;1.33;1.23;;;10.30;99.90;;;;;;4946466;28;20637;-64
2023/04/28 07:45:31;;;;;;;0.80;0.73;;;10.30;99.90;;;;;;4945291;28;20282;-65
2023/04/28 07:48:00;;;;;;;1.30;1.20;;;10.30;99.90;;;;;;4945234;28;20290;-65
2023/04/28 07:50:29;;;;;;;0.75;0.75;;;10.30;99.90;;;;;;4942632;28;20216;-65
2023/04/28 07:52:58;;;;;;;0.70;0.60;;;10.30;99.90;;;;;;4942031;28;20337;-65
2023/04/28 07:55:26;;;;;;;1.23;1.13;;;10.20;99.90;;;;;;4949589;28;20223;-63
2023/04/28 07:57:54;;;;;;;0.70;0.70;;;10.20;99.90;;;;;;4954717;28;20214;-65
2023/04/28 08:00:22;;;;;;;1.63;1.52;;;10.30;99.90;;;;;;4949213;28;20250;-65
2023/04/28 08:02:51;;;;;;;2.75;0.90;;;10.30;99.90;;;;;;4956382;28;20300;-65
2023/04/28 08:05:20;;;;;;;0.95;0.95;;;10.50;99.90;;;;;;4956908;28;20204;-64
2023/04/28 08:07:48;;;;;;;1.48;1.38;;;10.50;99.90;;;;;;4945179;28;20203;-65
2023/04/28 08:10:16;;;;;;;1.45;1.35;;;10.50;99.90;;;;;;4947055;28;20226;-65
2023/04/28 08:12:45;;;;;;;1.30;1.05;;;10.60;99.90;;;;;;4946220;28;20650;-64
2023/04/28 08:15:13;;;;;;;1.80;1.70;;;10.60;99.90;;;;;;4949921;28;20307;-64
2023/04/28 08:17:42;;;;;;;1.23;1.13;;;10.70;99.90;;;;;;4949951;28;20225;-64
2023/04/28 08:20:14;;;;;;;0.80;0.80;;;10.70;99.90;;;;;;4946238;28;20203;-65
2023/04/28 08:22:42;;;;;;;2.05;1.15;;;10.80;99.90;;;;;;4948048;28;20226;-65
2023/04/28 08:25:10;;;;;;;1.50;1.27;;;10.80;99.90;;;;;;4952653;28;20254;-63
2023/04/28 08:27:39;;;;;;;1.38;1.27;;;10.70;99.90;;;;;;4939693;28;20215;-65
2023/04/28 08:30:08;;;;;;;0.93;0.90;;;10.80;99.90;;;;;;4938192;28;20704;-65
2023/04/28 08:32:36;;;;;;;0.70;0.70;;;10.80;99.90;;;;;;4956309;28;20223;-65
2023/04/28 08:35:05;;;;;;;2.45;2.10;;;10.90;99.90;;;;;;4956288;28;20259;-65
2023/04/28 08:37:35;;;;;;;1.02;0.93;;;11.00;99.90;;;;;;4951693;28;20208;-65
2023/04/28 08:40:08;;;;;;;0.95;0.95;;;11.00;99.90;;;;;;4965074;28;20646;-65
2023/04/28 08:42:37;;;;;;;1.70;1.60;;;11.00;99.90;;;;;;4942181;28;20747;-66
2023/04/28 08:45:06;;;;;;;0.70;0.70;;;11.10;99.90;;;;;;4943731;28;20200;-65
2023/04/28 08:47:35;;;;;;;1.45;1.20;;;11.10;99.90;;;;;;4955819;28;20286;-65
2023/04/28 08:50:05;;;;;;;0.80;0.80;;;11.30;99.90;;;;;;4954033;28;20258;-64
2023/04/28 08:52:35;;;;;;;1.92;1.83;;;11.40;99.90;;;;;;4962416;28;20388;-65
2023/04/28 08:55:07;;;;;;;0.60;0.50;;;11.60;99.90;;;;;;4961291;28;20328;-64
2023/04/28 08:57:38;;;;;;;2.08;1.55;;;11.60;99.90;;;;;;4954539;28;20301;-65
2023/04/28 09:00:09;;;;;;;1.08;0.90;;;11.70;99.90;;;;;;4947564;28;20232;-64
2023/04/28 09:02:37;;;;;;;1.05;0.65;;;11.80;99.90;;;;;;4960447;28;20246;-66
2023/04/28 09:05:07;;;;;;;1.23;0.90;;;11.80;99.90;;;;;;4961463;28;20206;-65
2023/04/28 09:07:37;;;;;;;1.67;1.42;;;11.90;99.90;;;;;;4941390;28;20215;-64
2023/04/28 09:10:19;;;;;;;0.88;0.88;;;12.10;99.90;;;;;;4948216;28;20732;-64
2023/04/28 09:12:49;;;;;;;1.45;1.35;;;12.20;99.90;;;;;;4954016;28;20715;-65
2023/04/28 09:15:27;;;;;;;1.85;1.75;;;12.40;99.90;;;;;;4959425;28;20787;-65
2023/04/28 09:17:58;;;;;;;1.45;1.35;;;12.60;99.90;;;;;;4953503;28;20249;-64
2023/04/28 09:20:30;;;;;;;1.20;1.00;;;12.70;99.90;;;;;;4962921;28;20210;-65
2023/04/28 09:23:16;;;;;;;1.17;1.08;;;12.90;99.90;;;;;;4961569;28;20898;-65
2023/04/28 09:26:00;;;;;;;0.77;0.73;;;13.20;99.90;;;;;;4954394;28;20286;-65
2023/04/28 09:28:30;;;;;;;1.10;1.00;;;13.30;99.90;;;;;;4958613;28;20207;-65
2023/04/28 09:30:59;;;;;;;0.63;0.63;;;13.30;99.90;;;;;;4961248;28;20294;-65
2023/04/28 09:33:27;;;;;;;1.58;1.38;;;13.30;99.90;;;;;;4960336;28;20227;-64
2023/04/28 09:35:56;;;;;;;1.52;1.40;;;13.50;99.90;;;;;;4949122;28;20288;-65
2023/04/28 09:38:25;;;;;;;1.60;1.50;;;13.40;99.90;;;;;;4949845;28;20238;-65
2023/04/28 09:40:56;;;;;;;2.55;2.35;;;13.50;99.90;;;;;;4943840;28;20231;-64
2023/04/28 09:43:26;;;;;;;1.40;1.10;;;13.60;99.90;;;;;;4946245;28;20215;-64
2023/04/28 09:45:55;;;;;;;1.50;1.40;;;13.70;99.90;;;;;;4964244;28;20283;-65
2023/04/28 09:48:28;;;;;;;1.65;1.55;;;13.80;99.90;;;;;;4953422;28;20719;-65
2023/04/28 09:50:57;;;;;;;1.33;1.23;;;13.80;99.90;;;;;;4941542;28;20222;-64
2023/04/28 09:53:28;;;;;;;2.33;2.13;;;13.70;99.90;;;;;;4946741;28;20627;-66
2023/04/28 09:55:58;;;;;;;0.73;0.73;;;13.70;99.90;;;;;;4951729;28;20230;-64
2023/04/28 09:58:27;;;;;;;1.25;1.15;;;13.70;99.90;;;;;;4944013;28;20210;-65
2023/04/28 10:00:57;;;;;;;0.80;0.80;;;13.80;99.90;;;;;;4941506;28;20633;-65
2023/04/28 10:03:26;;;;;;;0.70;0.63;;;14.00;99.90;;;;;;4940253;28;20574;-65
2023/04/28 10:05:58;;;;;;;1.17;1.08;;;14.20;99.90;;;;;;4955938;28;20206;-66
2023/04/28 10:08:28;;;;;;;2.03;1.88;;;14.40;99.90;;;;;;4945909;28;20556;-65
2023/04/28 10:10:57;;;;;;;1.88;1.63;;;14.50;99.90;;;;;;4943584;28;20605;-66
2023/04/28 10:13:25;;;;;;;2.63;2.40;;;14.40;99.90;;;;;;4934781;28;20241;-65
2023/04/28 10:15:54;;;;;;;1.02;0.93;;;14.30;99.90;;;;;;4935630;28;20315;-65
2023/04/28 10:18:23;;;;;;;1.67;1.58;;;14.50;99.90;;;;;;4941177;28;20221;-65
2023/04/28 10:20:57;;;;;;;3.15;2.85;;;14.50;99.90;;;;;;4952424;28;20215;-65
2023/04/28 10:23:59;;;;;;;2.50;2.30;;;14.50;99.90;;;;;;4952260;28;20221;-66
2023/04/28 10:27:02;;;;;;;1.92;1.77;;;14.70;99.90;;;;;;4942221;28;20289;-66
2023/04/28 10:29:31;;;;;;;1.33;1.20;;;14.70;99.90;;;;;;4937567;28;20293;-65
2023/04/28 10:32:20;;;;;;;1.60;1.50;;;14.80;99.90;;;;;;4957655;28;20646;-65
2023/04/28 10:34:48;;;;;;;1.60;1.45;;;14.60;99.90;;;;;;4947412;28;20207;-66
2023/04/28 10:37:17;;;;;;;1.80;1.70;;;14.80;99.90;;;;;;4939287;28;20651;-66
2023/04/28 10:40:31;;;;;;;1.83;1.73;;;15.20;99.90;;;;;;4944729;28;20219;-65
2023/04/28 10:43:01;;;;;;;1.55;1.45;;;15.80;99.90;;;;;;4926414;28;20290;-66
2023/04/28 10:45:59;;;;;;;1.58;1.25;;;16.30;99.90;;;;;;4945532;28;20814;-66
2023/04/28 10:48:53;;;;;;;1.08;0.98;;;16.70;99.90;;;;;;4944173;28;20286;-66
2023/04/28 10:51:29;;;;;;;2.10;1.30;;;16.90;99.90;;;;;;4945807;28;20238;-66
2023/04/28 10:54:18;;;;;;;1.48;1.38;;;17.30;99.90;;;;;;4938899;28;20684;-66
2023/04/28 10:57:20;;;;;;;1.15;1.13;;;17.30;99.90;;;;;;4934990;28;20231;-66
2023/04/28 10:59:50;;;;;;;0.80;0.70;;;17.20;99.90;;;;;;4883819;29;20314;-66
2023/04/28 11:02:47;;;;;;;1.70;1.60;;;17.00;99.90;;;;;;4926545;28;20243;-65
2023/04/28 11:05:19;;;;;;;1.45;1.35;;;16.90;99.90;;;;;;4920295;28;20225;-66
2023/04/28 11:08:30;;;;;;;1.80;1.70;;;16.40;99.90;;;;;;4964450;28;20206;-66
2023/04/28 11:11:18;;;;;;;1.55;1.15;;;16.30;99.90;;;;;;4958503;28;20230;-66
2023/04/28 11:13:47;;;;;;;0.93;0.93;;;16.20;99.90;;;;;;4948202;28;20615;-66
2023/04/28 11:16:18;;;;;;;1.67;1.52;;;16.30;99.90;;;;;;4951679;28;20695;-66
2023/04/28 11:18:55;;;;;;;1.55;1.40;;;16.20;99.90;;;;;;4946901;28;20682;-66
2023/04/28 11:21:26;;;;;;;2.72;2.38;;;16.30;99.90;;;;;;4943887;28;20742;-65
2023/04/28 11:23:55;;;;;;;1.75;1.65;;;16.40;99.90;;;;;;4943908;28;20207;-66
2023/04/28 11:26:23;;;;;;;2.53;2.42;;;16.60;99.90;;;;;;4946730;28;20226;-66
2023/04/28 11:28:53;;;;;;;1.90;1.67;;;16.80;99.90;;;;;;4957673;28;20855;-66
2023/04/28 11:31:24;;;;;;;1.70;1.42;;;17.00;99.90;;;;;;4951766;28;20639;-66
2023/04/28 11:34:02;;;;;;;1.33;1.25;;;17.10;99.90;;;;;;4960504;28;20210;-66
2023/04/28 11:36:34;;;;;;;1.35;1.25;;;16.90;99.90;;;;;;4941066;28;20250;-66
2023/04/28 11:39:06;;;;;;;2.10;1.85;;;16.90;99.90;;;;;;4951718;28;20219;-66
2023/04/28 11:41:35;;;;;;;1.83;1.73;;;17.10;99.90;;;;;;4946115;28;20255;-66
2023/04/28 11:44:10;;;;;;;1.17;1.08;;;17.30;99.90;;;;;;4952600;28;20220;-68
2023/04/28 11:46:49;;;;;;;1.83;1.33;;;17.30;99.90;;;;;;4939348;28;20290;-66
2023/04/28 11:49:18;;;;;;;1.60;1.30;;;17.50;99.90;;;;;;4951275;28;20210;-65
2023/04/28 11:51:48;;;;;;;1.15;1.05;;;17.50;99.90;;;;;;4949764;28;20223;-66
2023/04/28 11:54:21;;;;;;;1.58;1.45;;;17.80;99.90;;;;;;4953019;28;20621;-65
2023/04/28 11:56:50;;;;;;;0.90;0.90;;;18.20;99.90;;;;;;4956142;28;20691;-65
2023/04/28 11:59:19;;;;;;;1.67;1.58;;;18.30;99.90;;;;;;4955675;28;20211;-65
2023/04/28 12:01:50;;;;;;;1.48;1.38;;;18.20;99.90;;;;;;4965153;28;20250;-65
2023/04/28 12:04:30;;;;;;;1.55;1.27;;;17.90;99.90;;;;;;4962813;28;20750;-66
2023/04/28 12:07:00;;;;;;;1.23;0.90;;;17.90;99.90;;;;;;4953493;28;20203;-67
2023/04/28 12:09:28;;;;;;;1.85;1.75;;;17.80;99.90;;;;;;4951258;28;20207;-68
2023/04/28 12:11:56;;;;;;;1.13;1.00;;;17.80;99.90;;;;;;4954894;28;20223;-68
2023/04/28 12:14:25;;;;;;;1.45;1.35;;;17.80;99.90;;;;;;4954851;28;20226;-64
2023/04/28 12:16:55;;;;;;;1.95;1.85;;;17.80;99.90;;;;;;4951563;28;20219;-65
2023/04/28 12:19:23;;;;;;;2.20;2.08;;;17.80;99.90;;;;;;4972046;28;20210;-65
2023/04/28 12:22:02;;;;;;;2.60;2.20;;;17.60;99.90;;;;;;4973559;28;20276;-64
2023/04/28 12:24:31;;;;;;;0.70;0.70;;;17.70;99.90;;;;;;4956759;28;20234;-64
2023/04/28 12:27:20;;;;;;;2.08;1.70;;;17.90;99.90;;;;;;4949639;28;20242;-64
2023/04/28 12:29:48;;;;;;;0.77;0.77;;;18.10;99.90;;;;;;4950162;28;20210;-64
2023/04/28 12:32:19;;;;;;;1.45;0.90;;;18.20;99.90;;;;;;4969200;28;20262;-64
2023/04/28 12:34:49;;;;;;;2.75;1.35;;;18.10;99.90;;;;;;4972139;28;20210;-64
2023/04/28 12:37:17;;;;;;;1.45;1.35;;;18.00;99.90;;;;;;4971869;28;20317;-64
2023/04/28 12:39:45;;;;;;;0.80;0.80;;;17.70;99.90;;;;;;4970491;28;20286;-64
2023/04/28 12:42:13;;;;;;;1.42;1.33;;;17.70;99.90;;;;;;4973648;28;20234;-64
2023/04/28 12:44:41;;;;;;;1.48;1.38;;;17.70;99.90;;;;;;4973534;28;20199;-65
2023/04/28 12:47:10;;;;;;;0.80;0.80;;;18.20;99.90;;;;;;4973857;28;20646;-64
2023/04/28 12:49:40;;;;;;;1.45;0.95;;;18.60;99.90;;;;;;4973191;28;20649;-64
2023/04/28 12:52:08;;;;;;;1.60;1.50;;;18.80;99.90;;;;;;4959815;28;20278;-63
2023/04/28 12:54:36;;;;;;;1.33;1.23;;;19.00;99.90;;;;;;4954094;28;20230;-64
2023/04/28 12:57:05;;;;;;;0.60;0.50;;;19.20;99.90;;;;;;4969082;28;20297;-64
2023/04/28 12:59:33;;;;;;;1.20;1.00;;;19.40;99.90;;;;;;4969418;28;20217;-64
2023/04/28 13:02:01;;;;;;;1.30;1.20;;;19.80;99.90;;;;;;4961196;28;20252;-64